createdAt,value
2022-12-31T00:00:53.145Z,1.40
2022-12-31T00:03:21.366Z,1.20
2022-12-31T00:05:49.506Z,1.30
2022-12-31T00:08:19.089Z,1.10
2022-12-31T00:10:47.375Z,1.20
2022-12-31T00:13:16.825Z,0.80
2022-12-31T00:15:45.828Z,0.77
2022-12-31T00:18:14.008Z,0.73
2022-12-31T00:20:42.892Z,0.90
2022-12-31T00:23:11.461Z,0.83
2022-12-31T00:25:41.394Z,0.60
2022-12-31T00:28:09.563Z,0.70
2022-12-31T00:30:37.951Z,0.60
2022-12-31T00:33:06.110Z,0.63
2022-12-31T00:35:34.755Z,0.40
2022-12-31T00:38:06.523Z,0.60
2022-12-31T00:40:34.621Z,0.70
2022-12-31T00:43:04.150Z,0.80
2022-12-31T00:45:32.319Z,0.87
2022-12-31T00:48:00.461Z,0.90
2022-12-31T00:50:30.714Z,0.70
2022-12-31T00:52:59.015Z,0.73
2022-12-31T00:55:27.319Z,0.60
2022-12-31T00:57:55.430Z,0.60
2022-12-31T01:00:25.092Z,0.77
2022-12-31T01:02:53.992Z,0.70
2022-12-31T01:05:22.186Z,0.40
2022-12-31T01:07:50.528Z,0.63
2022-12-31T01:10:38.801Z,0.60
2022-12-31T01:13:07.077Z,0.30
2022-12-31T01:15:37.816Z,0.47
2022-12-31T01:18:06.628Z,0.57
2022-12-31T01:20:37.759Z,0.30
2022-12-31T01:23:06.110Z,0.43
2022-12-31T01:25:37.801Z,0.30
2022-12-31T01:28:08.188Z,0.50
2022-12-31T01:30:40.165Z,0.30
2022-12-31T01:33:08.373Z,0.40
2022-12-31T01:35:37.068Z,0.40
2022-12-31T01:38:06.040Z,0.40
2022-12-31T01:40:38.156Z,0.43
2022-12-31T01:43:16.320Z,0.50
2022-12-31T01:45:48.221Z,0.50
2022-12-31T01:48:21.895Z,0.20
2022-12-31T01:50:50.939Z,0.20
2022-12-31T01:53:20.596Z,0.27
2022-12-31T01:55:51.662Z,0.40
2022-12-31T01:58:23.770Z,0.30
2022-12-31T02:00:55.053Z,0.30
2022-12-31T02:03:25.832Z,0.40
2022-12-31T02:05:57.601Z,0.30
2022-12-31T02:08:26.649Z,0.37
2022-12-31T02:10:55.079Z,0.30
2022-12-31T02:13:24.377Z,0.30
2022-12-31T02:16:01.792Z,0.40
2022-12-31T02:18:36.205Z,0.20
2022-12-31T02:21:38.224Z,0.40
2022-12-31T02:24:28.065Z,0.50
2022-12-31T02:27:00.782Z,0.53
2022-12-31T02:30:00.287Z,0.40
2022-12-31T02:32:39.305Z,0.50
2022-12-31T02:35:13.483Z,0.30
2022-12-31T02:37:44.705Z,0.30
2022-12-31T02:40:16.881Z,0.30
2022-12-31T02:42:48.617Z,0.30
2022-12-31T02:45:27.677Z,0.50
2022-12-31T02:48:09.856Z,0.30
2022-12-31T02:51:02.991Z,0.20
2022-12-31T02:53:47.320Z,0.30
2022-12-31T02:56:23.855Z,0.40
2022-12-31T02:59:17.077Z,0.40
2022-12-31T03:02:09.941Z,0.20
2022-12-31T03:04:43.153Z,0.47
2022-12-31T03:07:13.319Z,0.40
2022-12-31T03:09:41.740Z,0.30
2022-12-31T03:12:30.969Z,0.40
2022-12-31T03:15:07.077Z,0.43
2022-12-31T03:17:36.411Z,0.30
2022-12-31T03:20:24.459Z,0.40
2022-12-31T03:22:52.956Z,0.20
2022-12-31T03:25:35.140Z,0.50
2022-12-31T03:28:05.460Z,0.30
2022-12-31T03:30:35.283Z,0.33
2022-12-31T03:33:04.679Z,0.30
2022-12-31T03:35:36.840Z,0.20
2022-12-31T03:38:05.929Z,0.30
2022-12-31T03:40:35.036Z,0.20
2022-12-31T03:43:03.140Z,0.30
2022-12-31T03:45:31.651Z,0.40
2022-12-31T03:47:59.823Z,0.30
2022-12-31T03:50:29.025Z,0.30
2022-12-31T03:52:58.804Z,0.27
2022-12-31T03:55:27.060Z,0.30
2022-12-31T03:57:56.889Z,0.30
2022-12-31T04:00:29.682Z,0.20
2022-12-31T04:02:58.024Z,0.20
2022-12-31T04:05:26.372Z,0.20
2022-12-31T04:07:55.911Z,0.30
2022-12-31T04:10:25.561Z,0.30
2022-12-31T04:12:53.631Z,0.20
2022-12-31T04:15:22.661Z,0.40
2022-12-31T04:17:50.743Z,0.40
2022-12-31T04:20:19.256Z,0.50
2022-12-31T04:22:47.401Z,0.40
2022-12-31T04:25:15.505Z,0.40
2022-12-31T04:27:45.073Z,0.20
2022-12-31T04:30:14.487Z,0.30
2022-12-31T04:32:43.327Z,0.40
2022-12-31T04:35:12.167Z,0.30
2022-12-31T04:37:40.391Z,0.33
2022-12-31T04:40:09.950Z,0.40
2022-12-31T04:42:38.370Z,0.30
2022-12-31T04:45:09.766Z,0.30
2022-12-31T04:47:38.358Z,0.30
2022-12-31T04:50:07.533Z,0.30
2022-12-31T04:52:42.462Z,0.40
2022-12-31T04:55:12.119Z,0.33
2022-12-31T04:57:40.458Z,0.20
2022-12-31T05:00:11.363Z,0.30
2022-12-31T05:02:39.696Z,0.40
2022-12-31T05:05:08.606Z,0.10
2022-12-31T05:07:37.574Z,0.30
2022-12-31T05:10:06.992Z,0.40
2022-12-31T05:12:35.130Z,0.40
2022-12-31T05:15:03.440Z,0.40
2022-12-31T05:17:32.953Z,0.30
2022-12-31T05:20:02.401Z,0.30
2022-12-31T05:22:30.729Z,0.27
2022-12-31T05:25:01.270Z,0.30
2022-12-31T05:27:31.670Z,0.30
2022-12-31T05:30:00.076Z,0.30
2022-12-31T05:32:28.861Z,0.50
2022-12-31T05:35:12.455Z,0.23
2022-12-31T05:37:40.743Z,0.20
2022-12-31T05:40:10.068Z,0.13
2022-12-31T05:42:41.627Z,0.40
2022-12-31T05:45:13.488Z,0.40
2022-12-31T05:47:41.701Z,0.30
2022-12-31T05:50:15.393Z,0.30
2022-12-31T05:52:47.375Z,0.30
2022-12-31T05:55:17.340Z,0.50
2022-12-31T05:57:46.168Z,0.20
2022-12-31T06:00:15.998Z,0.30
2022-12-31T06:02:44.119Z,0.30
2022-12-31T06:05:14.196Z,0.30
2022-12-31T06:07:42.374Z,0.30
2022-12-31T06:10:10.686Z,0.20
2022-12-31T06:12:38.731Z,0.23
2022-12-31T06:15:08.331Z,0.20
2022-12-31T06:17:37.421Z,0.20
2022-12-31T06:20:12.480Z,0.33
2022-12-31T06:22:46.467Z,0.40
2022-12-31T06:25:15.594Z,0.30
2022-12-31T06:27:43.979Z,0.37
2022-12-31T06:30:13.203Z,0.40
2022-12-31T06:32:42.212Z,1.13
2022-12-31T06:35:11.242Z,0.90
2022-12-31T06:37:39.545Z,1.30
2022-12-31T06:40:11.233Z,0.40
2022-12-31T06:42:39.308Z,0.30
2022-12-31T06:45:08.573Z,0.27
2022-12-31T06:47:36.958Z,0.40
2022-12-31T06:50:05.612Z,0.40
2022-12-31T06:52:33.887Z,0.40
2022-12-31T06:55:02.586Z,0.50
2022-12-31T06:57:32.752Z,0.60
2022-12-31T07:00:01.451Z,0.40
2022-12-31T07:02:57.331Z,0.67
2022-12-31T07:05:37.153Z,0.50
2022-12-31T07:08:27.678Z,0.50
2022-12-31T07:11:01.069Z,0.70
2022-12-31T07:13:59.245Z,1.50
2022-12-31T07:16:37.486Z,0.60
2022-12-31T07:19:17.775Z,0.60
2022-12-31T07:21:46.384Z,0.50
2022-12-31T07:24:18.640Z,0.80
2022-12-31T07:27:06.467Z,0.97
2022-12-31T07:29:49.168Z,0.70
2022-12-31T07:32:30.514Z,0.60
2022-12-31T07:35:05.546Z,0.50
2022-12-31T07:37:42.109Z,0.60
2022-12-31T07:40:17.945Z,0.60
2022-12-31T07:43:01.893Z,0.50
2022-12-31T07:45:42.450Z,0.50
2022-12-31T07:48:22.468Z,0.50
2022-12-31T07:50:51.103Z,0.50
2022-12-31T07:53:19.889Z,0.63
2022-12-31T07:55:48.404Z,0.50
2022-12-31T07:58:23.042Z,0.70
2022-12-31T08:00:54.275Z,0.60
2022-12-31T08:03:39.729Z,0.70
2022-12-31T08:06:13.794Z,0.80
2022-12-31T08:08:52.656Z,1.10
2022-12-31T08:11:26.978Z,1.00
2022-12-31T08:13:57.271Z,0.93
2022-12-31T08:16:30.404Z,0.80
2022-12-31T08:18:59.083Z,0.70
2022-12-31T08:21:39.728Z,0.67
2022-12-31T08:24:18.925Z,0.60
2022-12-31T08:26:59.873Z,0.67
2022-12-31T08:29:37.141Z,0.50
2022-12-31T08:32:12.794Z,0.80
2022-12-31T08:34:51.673Z,0.77
2022-12-31T08:37:27.750Z,0.70
2022-12-31T08:40:12.159Z,0.60
2022-12-31T08:42:46.057Z,0.50
2022-12-31T08:45:22.244Z,0.60
2022-12-31T08:48:00.318Z,0.60
2022-12-31T08:50:29.782Z,0.90
2022-12-31T08:52:58.467Z,0.80
2022-12-31T08:55:27.128Z,0.70
2022-12-31T08:58:11.929Z,1.50
2022-12-31T09:00:41.951Z,1.90
2022-12-31T09:03:33.595Z,1.50
2022-12-31T09:06:09.034Z,0.70
2022-12-31T09:08:45.437Z,0.60
2022-12-31T09:11:23.236Z,0.80
2022-12-31T09:14:22.091Z,0.90
2022-12-31T09:16:56.389Z,0.83
2022-12-31T09:19:26.208Z,0.80
2022-12-31T09:21:55.306Z,0.50
2022-12-31T09:24:25.355Z,0.50
2022-12-31T09:29:57.217Z,0.80
2022-12-31T09:32:31.956Z,0.77
2022-12-31T09:35:11.907Z,0.60
2022-12-31T09:37:46.744Z,0.70
2022-12-31T09:40:52.172Z,0.53
2022-12-31T09:43:58.965Z,0.60
2022-12-31T09:47:03.290Z,0.80
2022-12-31T09:49:57.796Z,0.63
2022-12-31T09:52:38.418Z,0.70
2022-12-31T09:55:34.329Z,0.70
2022-12-31T10:00:43.671Z,0.70
2022-12-31T10:03:31.868Z,0.70
2022-12-31T10:06:24.688Z,0.80
2022-12-31T10:09:23.456Z,0.60
2022-12-31T10:12:14.860Z,0.70
2022-12-31T10:14:57.316Z,0.70
2022-12-31T10:17:40.461Z,0.70
2022-12-31T10:20:28.829Z,0.57
2022-12-31T10:23:20.558Z,0.57
2022-12-31T10:26:09.080Z,0.77
2022-12-31T10:28:46.170Z,0.60
2022-12-31T10:31:32.657Z,0.77
2022-12-31T10:34:14.971Z,0.63
2022-12-31T10:36:56.824Z,0.67
2022-12-31T10:39:44.677Z,0.83
2022-12-31T10:42:46.671Z,0.60
2022-12-31T10:45:49.084Z,0.90
2022-12-31T10:48:40.102Z,0.83
2022-12-31T10:51:48.590Z,0.80
2022-12-31T10:54:48.857Z,1.30
2022-12-31T10:58:10.907Z,0.90
2022-12-31T11:00:49.959Z,1.30
2022-12-31T11:03:51.123Z,1.27
2022-12-31T11:06:53.136Z,1.20
2022-12-31T11:09:44.259Z,1.43
2022-12-31T11:12:36.191Z,1.40
2022-12-31T11:15:23.806Z,1.47
2022-12-31T11:18:03.884Z,1.43
2022-12-31T11:20:51.136Z,1.40
2022-12-31T11:23:33.740Z,1.40
2022-12-31T11:26:12.443Z,1.50
2022-12-31T11:28:58.529Z,1.33
2022-12-31T11:32:00.182Z,1.40
2022-12-31T11:35:10.210Z,1.30
2022-12-31T11:37:45.399Z,1.50
2022-12-31T11:40:54.283Z,1.00
2022-12-31T11:43:30.963Z,1.60
2022-12-31T11:46:37.963Z,1.40
2022-12-31T11:49:30.162Z,1.60
2022-12-31T11:52:21.811Z,1.20
2022-12-31T11:55:00.460Z,1.60
2022-12-31T11:57:35.208Z,1.60
2022-12-31T12:00:14.375Z,1.87
2022-12-31T12:02:46.730Z,1.90
2022-12-31T12:05:18.108Z,1.80
2022-12-31T12:07:49.537Z,1.80
2022-12-31T12:10:31.792Z,1.80
2022-12-31T12:13:01.919Z,2.23
2022-12-31T12:15:33.245Z,2.50
2022-12-31T12:29:51.549Z,2.20
2022-12-31T12:32:21.851Z,2.97
2022-12-31T12:34:50.426Z,2.40
2022-12-31T12:37:33.495Z,2.20
2022-12-31T12:40:05.912Z,2.10
2022-12-31T12:42:34.083Z,2.10
2022-12-31T12:45:03.600Z,1.90
2022-12-31T12:47:37.804Z,1.70
2022-12-31T12:50:08.080Z,1.70
2022-12-31T12:52:59.537Z,1.60
2022-12-31T12:55:36.105Z,1.50
2022-12-31T12:58:24.631Z,1.63
2022-12-31T13:01:02.294Z,1.70
2022-12-31T13:04:33.005Z,1.20
2022-12-31T13:07:07.407Z,1.40
2022-12-31T13:09:49.718Z,1.60
2022-12-31T13:12:37.893Z,1.60
2022-12-31T13:15:22.235Z,1.60
2022-12-31T13:18:04.338Z,1.50
2022-12-31T13:20:40.772Z,2.07
2022-12-31T13:23:18.235Z,2.00
2022-12-31T13:26:01.375Z,1.83
2022-12-31T13:28:32.917Z,1.93
2022-12-31T13:31:07.186Z,1.60
2022-12-31T13:33:41.387Z,1.50
2022-12-31T13:36:15.412Z,1.33
2022-12-31T13:38:47.333Z,1.30
2022-12-31T13:41:20.113Z,1.20
2022-12-31T13:43:58.566Z,1.20
2022-12-31T13:46:36.536Z,1.30
2022-12-31T13:49:07.005Z,1.80
2022-12-31T13:51:42.585Z,1.57
2022-12-31T13:54:23.454Z,1.50
2022-12-31T13:56:56.135Z,1.80
2022-12-31T13:59:30.607Z,1.77
2022-12-31T14:02:03.062Z,1.70
2022-12-31T14:04:36.340Z,1.60
2022-12-31T14:07:38.859Z,1.70
2022-12-31T14:10:14.838Z,1.70
2022-12-31T14:12:50.133Z,1.43
2022-12-31T14:15:25.405Z,1.50
2022-12-31T14:18:02.658Z,1.60
2022-12-31T14:20:39.487Z,1.57
2022-12-31T14:23:15.338Z,1.40
2022-12-31T14:25:50.839Z,1.80
2022-12-31T14:28:22.950Z,1.90
2022-12-31T14:30:58.129Z,4.93
2022-12-31T14:33:39.362Z,4.40
2022-12-31T14:36:29.288Z,3.00
2022-12-31T14:39:17.698Z,2.50
2022-12-31T14:41:56.801Z,2.30
2022-12-31T14:44:35.928Z,2.27
2022-12-31T14:47:22.132Z,2.43
2022-12-31T14:49:58.314Z,2.20
2022-12-31T14:52:30.555Z,2.00
2022-12-31T14:55:00.847Z,2.20
2022-12-31T14:58:16.697Z,2.07
2022-12-31T15:00:34.097Z,1.97
2022-12-31T15:03:06.943Z,2.40
2022-12-31T15:05:37.610Z,2.00
2022-12-31T15:08:25.059Z,2.10
2022-12-31T15:11:08.716Z,2.00
2022-12-31T15:13:48.258Z,1.93
2022-12-31T15:16:29.054Z,2.83
2022-12-31T15:19:17.972Z,4.30
2022-12-31T15:22:00.074Z,6.73
2022-12-31T15:24:31.012Z,5.77
2022-12-31T15:27:01.625Z,6.37
2022-12-31T15:32:36.369Z,5.10
2022-12-31T15:35:29.717Z,6.53
2022-12-31T15:38:02.424Z,10.17
2022-12-31T15:40:30.799Z,7.93
2022-12-31T15:45:57.687Z,7.27
2022-12-31T15:48:54.584Z,5.97
2022-12-31T15:51:31.575Z,4.97
2022-12-31T15:54:01.471Z,5.70
2022-12-31T15:56:35.475Z,3.53
2022-12-31T15:59:07.704Z,3.20
2022-12-31T16:01:38.301Z,4.23
2022-12-31T16:04:16.310Z,4.90
2022-12-31T16:06:50.607Z,4.70
2022-12-31T16:09:23.619Z,4.80
2022-12-31T16:11:53.225Z,4.63
2022-12-31T16:14:26.749Z,4.60
2022-12-31T16:16:57.480Z,3.97
2022-12-31T16:19:33.984Z,4.10
2022-12-31T16:22:16.256Z,4.27
2022-12-31T16:25:28.198Z,4.80
2022-12-31T16:27:42.061Z,5.63
2022-12-31T16:30:22.129Z,5.23
2022-12-31T16:32:52.011Z,4.57
2022-12-31T16:35:26.374Z,4.07
2022-12-31T16:38:13.692Z,3.87
2022-12-31T16:40:43.453Z,5.30
2022-12-31T16:43:25.335Z,5.10
2022-12-31T16:45:54.671Z,4.70
2022-12-31T16:48:22.859Z,11.43
2022-12-31T16:50:54.332Z,36.37
2022-12-31T16:53:27.602Z,23.10
2022-12-31T16:55:58.387Z,22.33
2022-12-31T16:58:29.788Z,10.17
2022-12-31T17:01:05.681Z,11.27
2022-12-31T17:03:34.284Z,7.67
2022-12-31T17:06:15.749Z,6.07
2022-12-31T17:08:47.152Z,5.67
2022-12-31T17:11:23.540Z,5.77
2022-12-31T17:14:16.935Z,4.97
2022-12-31T17:17:04.139Z,4.80
2022-12-31T17:19:44.967Z,4.73
2022-12-31T17:22:22.849Z,4.30
2022-12-31T17:25:01.447Z,4.13
2022-12-31T17:27:31.165Z,4.13
2022-12-31T17:30:21.335Z,5.10
2022-12-31T17:32:53.288Z,4.83
2022-12-31T17:35:42.375Z,3.60
2022-12-31T17:38:31.462Z,3.90
2022-12-31T17:41:18.543Z,4.20
2022-12-31T17:43:46.591Z,3.90
2022-12-31T17:46:16.808Z,4.17
2022-12-31T17:48:46.727Z,4.07
2022-12-31T17:51:14.824Z,4.27
2022-12-31T17:53:43.557Z,3.57
2022-12-31T17:56:18.437Z,5.20
2022-12-31T17:58:50.979Z,5.30
2022-12-31T18:01:21.094Z,5.13
2022-12-31T18:03:50.123Z,4.83
2022-12-31T18:06:20.038Z,4.40
2022-12-31T18:08:48.198Z,4.73
2022-12-31T18:11:21.722Z,4.00
2022-12-31T18:13:50.558Z,4.90
2022-12-31T18:16:20.033Z,3.60
2022-12-31T18:18:48.204Z,3.37
2022-12-31T18:21:21.099Z,2.73
2022-12-31T18:23:50.242Z,2.10
2022-12-31T18:26:22.388Z,2.20
2022-12-31T18:28:50.980Z,2.20
2022-12-31T18:31:22.187Z,2.60
2022-12-31T18:33:50.921Z,2.97
2022-12-31T18:36:20.905Z,3.10
2022-12-31T18:38:49.440Z,2.80
2022-12-31T18:41:21.132Z,3.10
2022-12-31T18:43:50.210Z,2.80
2022-12-31T18:46:20.830Z,3.00
2022-12-31T18:48:49.361Z,2.23
2022-12-31T18:51:19.466Z,2.40
2022-12-31T18:53:47.909Z,2.17
2022-12-31T18:56:18.239Z,2.30
2022-12-31T18:58:48.895Z,2.50
2022-12-31T19:01:29.341Z,2.70
2022-12-31T19:03:59.311Z,3.50
2022-12-31T19:06:28.291Z,3.30
2022-12-31T19:08:56.972Z,4.40
2022-12-31T19:11:25.584Z,2.53
2022-12-31T19:13:55.502Z,49.83
2022-12-31T19:16:26.741Z,51.80
2022-12-31T19:18:55.036Z,16.63
2022-12-31T19:21:25.380Z,10.30
2022-12-31T19:23:56.180Z,7.03
2022-12-31T19:26:24.591Z,4.70
2022-12-31T19:28:54.232Z,3.50
2022-12-31T19:31:25.960Z,6.87
2022-12-31T19:33:54.114Z,5.83
2022-12-31T19:36:22.395Z,8.50
2022-12-31T19:38:50.720Z,9.47
2022-12-31T19:41:20.775Z,10.77
2022-12-31T19:43:50.705Z,8.80
2022-12-31T19:46:20.370Z,9.07
2022-12-31T19:48:57.109Z,11.20
2022-12-31T19:51:27.418Z,11.90
2022-12-31T19:53:56.151Z,12.47
2022-12-31T19:56:24.845Z,9.20
2022-12-31T19:58:53.023Z,8.63
2022-12-31T20:01:24.707Z,6.17
2022-12-31T20:04:04.381Z,7.87
2022-12-31T20:06:32.918Z,7.40
2022-12-31T20:09:01.063Z,7.50
2022-12-31T20:11:29.125Z,6.83
2022-12-31T20:13:57.224Z,9.33
2022-12-31T20:16:30.130Z,10.40
2022-12-31T20:18:58.620Z,10.93
2022-12-31T20:21:28.350Z,11.97
2022-12-31T20:23:57.039Z,11.90
2022-12-31T20:26:26.877Z,12.30
2022-12-31T20:28:55.430Z,9.80
2022-12-31T20:31:26.593Z,9.00
2022-12-31T20:33:56.126Z,9.07
2022-12-31T20:36:27.750Z,8.60
2022-12-31T20:38:55.844Z,7.93
2022-12-31T20:41:24.943Z,6.90
2022-12-31T20:43:54.313Z,7.10
2022-12-31T20:46:25.348Z,8.60
2022-12-31T20:48:56.335Z,13.37
2022-12-31T20:51:25.252Z,13.33
2022-12-31T20:53:56.098Z,14.43
2022-12-31T20:56:25.616Z,23.50
2022-12-31T20:58:53.770Z,20.13
2022-12-31T21:01:22.482Z,19.57
2022-12-31T21:04:04.725Z,18.17
2022-12-31T21:06:36.149Z,14.77
2022-12-31T21:09:06.006Z,19.17
2022-12-31T21:11:51.668Z,50.23
2022-12-31T21:14:20.122Z,26.43
2022-12-31T21:16:48.302Z,13.17
2022-12-31T21:19:16.407Z,21.53
2022-12-31T21:21:48.064Z,13.80
2022-12-31T21:24:21.824Z,14.23
2022-12-31T21:26:52.362Z,12.43
2022-12-31T21:29:20.419Z,13.13
2022-12-31T21:31:48.537Z,12.60
2022-12-31T21:34:16.671Z,12.60
2022-12-31T21:36:46.165Z,18.40
2022-12-31T21:39:14.321Z,14.80
2022-12-31T21:41:54.375Z,14.43
2022-12-31T21:44:23.798Z,14.77
2022-12-31T21:47:33.270Z,14.30
2022-12-31T21:49:44.223Z,13.90
2022-12-31T21:52:30.723Z,14.00
2022-12-31T21:55:17.575Z,14.57
2022-12-31T21:58:24.395Z,14.03
2022-12-31T22:00:54.956Z,14.30
2022-12-31T22:03:27.561Z,14.70
2022-12-31T22:05:59.901Z,15.27
2022-12-31T22:08:30.452Z,14.63
2022-12-31T22:10:59.538Z,13.33
2022-12-31T22:13:27.631Z,14.40
2022-12-31T22:16:04.226Z,14.33
2022-12-31T22:18:35.641Z,13.53
2022-12-31T22:21:06.542Z,14.17
2022-12-31T22:23:38.610Z,12.70
2022-12-31T22:26:08.477Z,12.80
2022-12-31T22:28:38.584Z,11.73
2022-12-31T22:31:07.922Z,11.83
2022-12-31T22:33:36.155Z,10.23
2022-12-31T22:36:06.536Z,10.90
2022-12-31T22:38:35.462Z,9.73
2022-12-31T22:41:11.861Z,9.40
2022-12-31T22:43:42.229Z,8.30
2022-12-31T22:46:13.470Z,9.60
2022-12-31T22:48:42.969Z,10.03
2022-12-31T22:51:12.071Z,12.17
2022-12-31T22:53:41.324Z,13.80
2022-12-31T22:56:12.982Z,16.97
2022-12-31T22:58:41.442Z,19.70
2022-12-31T23:01:16.317Z,19.10
2022-12-31T23:03:44.595Z,103.87
2022-12-31T23:06:12.953Z,268.83
2022-12-31T23:08:41.110Z,223.33
2022-12-31T23:11:10.101Z,182.63
2022-12-31T23:13:58.736Z,131.53
2022-12-31T23:16:46.653Z,107.53
2022-12-31T23:19:33.486Z,130.30
2022-12-31T23:22:19.135Z,139.27
2022-12-31T23:24:48.313Z,114.53
2022-12-31T23:27:17.854Z,103.57
2022-12-31T23:29:47.468Z,79.73
2022-12-31T23:32:16.362Z,55.83
2022-12-31T23:34:45.367Z,48.07
2022-12-31T23:37:14.791Z,42.73
2022-12-31T23:39:43.472Z,33.83
2022-12-31T23:42:11.618Z,30.90
2022-12-31T23:44:41.205Z,28.30
2022-12-31T23:47:09.583Z,27.37
2022-12-31T23:49:41.251Z,27.73
2022-12-31T23:52:09.327Z,29.63
2022-12-31T23:54:37.420Z,31.90
2022-12-31T23:57:05.668Z,30.40
2022-12-31T23:59:33.948Z,29.43
